sensor_id;sensor_type;location;lat;lon;timestamp;P1;durP1;ratioP1;P2;durP2;ratioP2
71763;SDS011;59602;52.142;5.408;2023-01-05T00:01:52;20.90;;;1.63;;
71763;SDS011;59602;52.142;5.408;2023-01-05T00:04:22;15.07;;;1.17;;
71763;SDS011;59602;52.142;5.408;2023-01-05T00:07:09;15.00;;;1.50;;
71763;SDS011;59602;52.142;5.408;2023-01-05T00:09:38;21.88;;;2.30;;
71763;SDS011;59602;52.142;5.408;2023-01-05T00:12:08;16.58;;;1.15;;
71763;SDS011;59602;52.142;5.408;2023-01-05T00:14:54;14.70;;;1.20;;
71763;SDS011;59602;52.142;5.408;2023-01-05T00:17:51;16.57;;;1.73;;
71763;SDS011;59602;52.142;5.408;2023-01-05T00:20:55;17.80;;;1.70;;
71763;SDS011;59602;52.142;5.408;2023-01-05T00:23:49;11.68;;;1.20;;
71763;SDS011;59602;52.142;5.408;2023-01-05T00:26:33;17.58;;;1.98;;
71763;SDS011;59602;52.142;5.408;2023-01-05T00:29:19;11.88;;;0.60;;
71763;SDS011;59602;52.142;5.408;2023-01-05T00:31:45;14.73;;;1.23;;
71763;SDS011;59602;52.142;5.408;2023-01-05T00:34:36;16.25;;;1.90;;
71763;SDS011;59602;52.142;5.408;2023-01-05T00:37:10;16.98;;;1.67;;
71763;SDS011;59602;52.142;5.408;2023-01-05T00:39:40;14.05;;;0.63;;
71763;SDS011;59602;52.142;5.408;2023-01-05T00:42:07;16.85;;;0.82;;
71763;SDS011;59602;52.142;5.408;2023-01-05T00:44:39;15.53;;;0.87;;
71763;SDS011;59602;52.142;5.408;2023-01-05T00:47:31;12.50;;;1.10;;
71763;SDS011;59602;52.142;5.408;2023-01-05T00:51:10;11.95;;;1.08;;
71763;SDS011;59602;52.142;5.408;2023-01-05T00:53:41;13.27;;;0.80;;
71763;SDS011;59602;52.142;5.408;2023-01-05T00:57:09;14.43;;;1.30;;
71763;SDS011;59602;52.142;5.408;2023-01-05T00:59:55;14.83;;;1.43;;
71763;SDS011;59602;52.142;5.408;2023-01-05T01:02:24;13.73;;;1.17;;
71763;SDS011;59602;52.142;5.408;2023-01-05T01:04:54;14.38;;;1.20;;
71763;SDS011;59602;52.142;5.408;2023-01-05T01:07:24;14.65;;;1.17;;
71763;SDS011;59602;52.142;5.408;2023-01-05T01:09:53;16.40;;;2.03;;
71763;SDS011;59602;52.142;5.408;2023-01-05T01:12:28;14.97;;;1.17;;
71763;SDS011;59602;52.142;5.408;2023-01-05T01:14:57;9.60;;;0.70;;
71763;SDS011;59602;52.142;5.408;2023-01-05T01:18:33;12.32;;;0.90;;
71763;SDS011;59602;52.142;5.408;2023-01-05T01:20:52;12.57;;;0.80;;
71763;SDS011;59602;52.142;5.408;2023-01-05T01:23:22;14.57;;;1.55;;
71763;SDS011;59602;52.142;5.408;2023-01-05T01:25:48;13.57;;;1.30;;
71763;SDS011;59602;52.142;5.408;2023-01-05T01:28:19;9.13;;;0.80;;
71763;SDS011;59602;52.142;5.408;2023-01-05T01:30:55;13.00;;;0.90;;
71763;SDS011;59602;52.142;5.408;2023-01-05T01:33:25;9.27;;;0.93;;
71763;SDS011;59602;52.142;5.408;2023-01-05T01:35:52;15.40;;;0.85;;
71763;SDS011;59602;52.142;5.408;2023-01-05T01:38:20;18.33;;;1.43;;
71763;SDS011;59602;52.142;5.408;2023-01-05T01:43:48;13.32;;;0.80;;
71763;SDS011;59602;52.142;5.408;2023-01-05T01:46:38;14.63;;;0.95;;
71763;SDS011;59602;52.142;5.408;2023-01-05T01:49:27;10.93;;;0.95;;
71763;SDS011;59602;52.142;5.408;2023-01-05T01:52:28;17.83;;;1.80;;
71763;SDS011;59602;52.142;5.408;2023-01-05T01:55:00;15.10;;;1.50;;
71763;SDS011;59602;52.142;5.408;2023-01-05T02:00:39;16.15;;;1.25;;
71763;SDS011;59602;52.142;5.408;2023-01-05T02:03:33;16.70;;;1.65;;
71763;SDS011;59602;52.142;5.408;2023-01-05T02:06:04;17.93;;;1.93;;
71763;SDS011;59602;52.142;5.408;2023-01-05T02:08:34;15.07;;;1.20;;
71763;SDS011;59602;52.142;5.408;2023-01-05T02:20:34;17.07;;;1.20;;
71763;SDS011;59602;52.142;5.408;2023-01-05T02:23:39;15.68;;;0.85;;
71763;SDS011;59602;52.142;5.408;2023-01-05T02:27:05;17.50;;;1.38;;
71763;SDS011;59602;52.142;5.408;2023-01-05T02:33:26;19.42;;;1.50;;
71763;SDS011;59602;52.142;5.408;2023-01-05T02:38:37;15.43;;;1.33;;
71763;SDS011;59602;52.142;5.408;2023-01-05T02:41:12;16.23;;;1.20;;
71763;SDS011;59602;52.142;5.408;2023-01-05T02:44:06;14.98;;;1.02;;
71763;SDS011;59602;52.142;5.408;2023-01-05T02:46:58;11.85;;;1.30;;
71763;SDS011;59602;52.142;5.408;2023-01-05T02:49:43;15.30;;;1.23;;
71763;SDS011;59602;52.142;5.408;2023-01-05T02:52:12;16.83;;;1.25;;
71763;SDS011;59602;52.142;5.408;2023-01-05T02:57:47;16.38;;;1.52;;
71763;SDS011;59602;52.142;5.408;2023-01-05T03:00:32;13.02;;;0.82;;
71763;SDS011;59602;52.142;5.408;2023-01-05T03:03:38;17.23;;;1.23;;
71763;SDS011;59602;52.142;5.408;2023-01-05T03:06:58;16.35;;;1.25;;
71763;SDS011;59602;52.142;5.408;2023-01-05T03:10:24;15.48;;;0.98;;
71763;SDS011;59602;52.142;5.408;2023-01-05T03:13:26;14.75;;;1.50;;
71763;SDS011;59602;52.142;5.408;2023-01-05T03:16:22;11.98;;;1.80;;
71763;SDS011;59602;52.142;5.408;2023-01-05T03:25:50;16.48;;;1.40;;
71763;SDS011;59602;52.142;5.408;2023-01-05T03:29:47;16.95;;;1.35;;
71763;SDS011;59602;52.142;5.408;2023-01-05T03:35:44;11.33;;;1.43;;
71763;SDS011;59602;52.142;5.408;2023-01-05T03:38:39;15.18;;;1.35;;
71763;SDS011;59602;52.142;5.408;2023-01-05T03:41:14;16.10;;;1.50;;
71763;SDS011;59602;52.142;5.408;2023-01-05T03:47:40;20.48;;;1.77;;
71763;SDS011;59602;52.142;5.408;2023-01-05T03:50:25;17.80;;;2.50;;
71763;SDS011;59602;52.142;5.408;2023-01-05T03:53:40;15.23;;;1.38;;
71763;SDS011;59602;52.142;5.408;2023-01-05T03:56:13;18.95;;;2.25;;
71763;SDS011;59602;52.142;5.408;2023-01-05T03:58:58;18.25;;;1.20;;
71763;SDS011;59602;52.142;5.408;2023-01-05T04:01:27;11.75;;;1.02;;
71763;SDS011;59602;52.142;5.408;2023-01-05T04:07:47;10.40;;;1.17;;
71763;SDS011;59602;52.142;5.408;2023-01-05T04:10:22;19.40;;;1.40;;
71763;SDS011;59602;52.142;5.408;2023-01-05T04:15:39;13.88;;;1.33;;
71763;SDS011;59602;52.142;5.408;2023-01-05T04:18:31;9.83;;;1.20;;
71763;SDS011;59602;52.142;5.408;2023-01-05T04:21:50;10.50;;;1.02;;
71763;SDS011;59602;52.142;5.408;2023-01-05T04:32:32;13.65;;;1.10;;
71763;SDS011;59602;52.142;5.408;2023-01-05T04:39:32;11.43;;;1.63;;
71763;SDS011;59602;52.142;5.408;2023-01-05T04:49:46;14.55;;;1.02;;
71763;SDS011;59602;52.142;5.408;2023-01-05T04:53:51;14.53;;;0.93;;
71763;SDS011;59602;52.142;5.408;2023-01-05T04:59:18;14.20;;;1.23;;
71763;SDS011;59602;52.142;5.408;2023-01-05T05:14:55;17.52;;;1.30;;
71763;SDS011;59602;52.142;5.408;2023-01-05T05:17:22;14.90;;;1.38;;
71763;SDS011;59602;52.142;5.408;2023-01-05T05:20:25;12.05;;;1.27;;
71763;SDS011;59602;52.142;5.408;2023-01-05T05:34:24;17.73;;;1.10;;
71763;SDS011;59602;52.142;5.408;2023-01-05T05:38:05;18.80;;;1.30;;
71763;SDS011;59602;52.142;5.408;2023-01-05T05:41:30;12.50;;;1.10;;
71763;SDS011;59602;52.142;5.408;2023-01-05T05:51:29;15.20;;;1.70;;
71763;SDS011;59602;52.142;5.408;2023-01-05T05:54:14;17.15;;;1.67;;
71763;SDS011;59602;52.142;5.408;2023-01-05T06:07:58;19.45;;;1.23;;
71763;SDS011;59602;52.142;5.408;2023-01-05T06:10:42;16.95;;;1.67;;
71763;SDS011;59602;52.142;5.408;2023-01-05T06:13:25;13.97;;;1.43;;
71763;SDS011;59602;52.142;5.408;2023-01-05T06:20:12;16.92;;;1.77;;
71763;SDS011;59602;52.142;5.408;2023-01-05T06:23:09;20.27;;;1.02;;
71763;SDS011;59602;52.142;5.408;2023-01-05T06:26:00;13.73;;;1.13;;
71763;SDS011;59602;52.142;5.408;2023-01-05T06:29:20;18.10;;;1.43;;
71763;SDS011;59602;52.142;5.408;2023-01-05T06:32:38;19.70;;;1.38;;
71763;SDS011;59602;52.142;5.408;2023-01-05T06:35:25;16.58;;;1.30;;
71763;SDS011;59602;52.142;5.408;2023-01-05T06:42:27;19.60;;;1.45;;
71763;SDS011;59602;52.142;5.408;2023-01-05T06:48:37;19.48;;;1.23;;
71763;SDS011;59602;52.142;5.408;2023-01-05T06:52:22;13.13;;;1.38;;
71763;SDS011;59602;52.142;5.408;2023-01-05T06:58:53;14.77;;;1.38;;
71763;SDS011;59602;52.142;5.408;2023-01-05T07:09:17;18.27;;;1.67;;
71763;SDS011;59602;52.142;5.408;2023-01-05T07:11:52;15.40;;;0.98;;
71763;SDS011;59602;52.142;5.408;2023-01-05T07:14:19;13.85;;;1.17;;
71763;SDS011;59602;52.142;5.408;2023-01-05T07:17:39;14.23;;;1.50;;
71763;SDS011;59602;52.142;5.408;2023-01-05T07:20:34;17.90;;;1.15;;
71763;SDS011;59602;52.142;5.408;2023-01-05T07:27:41;20.92;;;1.42;;
71763;SDS011;59602;52.142;5.408;2023-01-05T07:34:02;13.33;;;0.80;;
71763;SDS011;59602;52.142;5.408;2023-01-05T08:13:29;11.77;;;1.00;;
71763;SDS011;59602;52.142;5.408;2023-01-05T08:16:07;16.85;;;1.55;;
71763;SDS011;59602;52.142;5.408;2023-01-05T08:18:51;15.20;;;1.33;;
71763;SDS011;59602;52.142;5.408;2023-01-05T08:25:55;14.93;;;1.77;;
71763;SDS011;59602;52.142;5.408;2023-01-05T08:29:56;16.30;;;1.10;;
71763;SDS011;59602;52.142;5.408;2023-01-05T08:40:38;12.83;;;1.00;;
71763;SDS011;59602;52.142;5.408;2023-01-05T08:44:13;15.02;;;1.13;;
71763;SDS011;59602;52.142;5.408;2023-01-05T08:46:45;14.48;;;1.27;;
71763;SDS011;59602;52.142;5.408;2023-01-05T08:49:36;14.32;;;1.48;;
71763;SDS011;59602;52.142;5.408;2023-01-05T08:56:07;13.70;;;1.20;;
71763;SDS011;59602;52.142;5.408;2023-01-05T08:59:12;11.30;;;1.10;;
71763;SDS011;59602;52.142;5.408;2023-01-05T09:02:20;12.55;;;1.55;;
71763;SDS011;59602;52.142;5.408;2023-01-05T09:04:51;14.77;;;1.90;;
71763;SDS011;59602;52.142;5.408;2023-01-05T09:07:18;16.55;;;1.10;;
71763;SDS011;59602;52.142;5.408;2023-01-05T09:10:10;16.53;;;1.07;;
71763;SDS011;59602;52.142;5.408;2023-01-05T09:12:37;14.35;;;1.55;;
71763;SDS011;59602;52.142;5.408;2023-01-05T09:15:04;15.93;;;1.85;;
71763;SDS011;59602;52.142;5.408;2023-01-05T09:17:32;15.70;;;1.75;;
71763;SDS011;59602;52.142;5.408;2023-01-05T09:20:04;14.23;;;1.42;;
71763;SDS011;59602;52.142;5.408;2023-01-05T09:22:39;12.60;;;1.20;;
71763;SDS011;59602;52.142;5.408;2023-01-05T09:25:06;20.77;;;2.17;;
71763;SDS011;59602;52.142;5.408;2023-01-05T09:27:33;13.40;;;1.15;;
71763;SDS011;59602;52.142;5.408;2023-01-05T09:30:02;14.48;;;1.35;;
71763;SDS011;59602;52.142;5.408;2023-01-05T09:32:30;14.48;;;1.73;;
71763;SDS011;59602;52.142;5.408;2023-01-05T09:34:56;16.67;;;1.60;;
71763;SDS011;59602;52.142;5.408;2023-01-05T09:37:23;11.48;;;1.20;;
71763;SDS011;59602;52.142;5.408;2023-01-05T09:39:50;18.13;;;1.88;;
71763;SDS011;59602;52.142;5.408;2023-01-05T09:42:18;13.90;;;0.98;;
71763;SDS011;59602;52.142;5.408;2023-01-05T09:44:49;18.73;;;1.45;;
71763;SDS011;59602;52.142;5.408;2023-01-05T09:47:28;15.27;;;1.13;;
71763;SDS011;59602;52.142;5.408;2023-01-05T09:50:00;13.27;;;1.88;;
71763;SDS011;59602;52.142;5.408;2023-01-05T09:52:27;17.17;;;1.30;;
71763;SDS011;59602;52.142;5.408;2023-01-05T09:55:08;13.30;;;1.38;;
71763;SDS011;59602;52.142;5.408;2023-01-05T09:57:40;12.65;;;1.88;;
71763;SDS011;59602;52.142;5.408;2023-01-05T10:00:10;18.83;;;1.57;;
71763;SDS011;59602;52.142;5.408;2023-01-05T10:02:46;12.80;;;1.20;;
71763;SDS011;59602;52.142;5.408;2023-01-05T10:05:16;15.38;;;1.02;;
71763;SDS011;59602;52.142;5.408;2023-01-05T10:15:04;19.03;;;1.47;;
71763;SDS011;59602;52.142;5.408;2023-01-05T10:17:35;21.63;;;1.10;;
71763;SDS011;59602;52.142;5.408;2023-01-05T10:25:42;17.88;;;1.83;;
71763;SDS011;59602;52.142;5.408;2023-01-05T10:31:00;17.60;;;3.15;;
71763;SDS011;59602;52.142;5.408;2023-01-05T10:36:12;18.02;;;1.20;;
71763;SDS011;59602;52.142;5.408;2023-01-05T10:47:14;11.93;;;1.23;;
71763;SDS011;59602;52.142;5.408;2023-01-05T10:49:42;13.60;;;0.77;;
71763;SDS011;59602;52.142;5.408;2023-01-05T10:52:12;14.77;;;1.85;;
71763;SDS011;59602;52.142;5.408;2023-01-05T10:54:43;16.50;;;5.10;;
71763;SDS011;59602;52.142;5.408;2023-01-05T11:00:08;16.00;;;0.90;;
71763;SDS011;59602;52.142;5.408;2023-01-05T11:02:39;14.38;;;1.73;;
71763;SDS011;59602;52.142;5.408;2023-01-05T11:07:47;12.83;;;1.10;;
71763;SDS011;59602;52.142;5.408;2023-01-05T11:10:20;16.67;;;1.25;;
71763;SDS011;59602;52.142;5.408;2023-01-05T11:12:50;16.30;;;1.23;;
71763;SDS011;59602;52.142;5.408;2023-01-05T11:15:19;15.93;;;0.98;;
71763;SDS011;59602;52.142;5.408;2023-01-05T11:17:46;14.63;;;0.65;;
71763;SDS011;59602;52.142;5.408;2023-01-05T11:20:15;12.03;;;0.80;;
71763;SDS011;59602;52.142;5.408;2023-01-05T11:22:43;14.40;;;1.10;;
71763;SDS011;59602;52.142;5.408;2023-01-05T11:28:09;14.73;;;1.33;;
71763;SDS011;59602;52.142;5.408;2023-01-05T11:30:40;8.93;;;1.00;;
71763;SDS011;59602;52.142;5.408;2023-01-05T11:33:23;19.50;;;1.03;;
71763;SDS011;59602;52.142;5.408;2023-01-05T11:35:54;10.27;;;1.00;;
71763;SDS011;59602;52.142;5.408;2023-01-05T11:38:23;12.82;;;0.88;;
71763;SDS011;59602;52.142;5.408;2023-01-05T11:40:55;15.55;;;1.35;;
71763;SDS011;59602;52.142;5.408;2023-01-05T11:43:25;18.33;;;1.35;;
71763;SDS011;59602;52.142;5.408;2023-01-05T11:45:57;13.70;;;0.93;;
71763;SDS011;59602;52.142;5.408;2023-01-05T11:48:28;18.48;;;1.13;;
71763;SDS011;59602;52.142;5.408;2023-01-05T11:50:57;20.58;;;1.75;;
71763;SDS011;59602;52.142;5.408;2023-01-05T11:58:27;11.23;;;1.00;;
71763;SDS011;59602;52.142;5.408;2023-01-05T12:06:17;13.43;;;0.90;;
71763;SDS011;59602;52.142;5.408;2023-01-05T12:08:57;10.25;;;0.80;;
71763;SDS011;59602;52.142;5.408;2023-01-05T12:11:36;14.47;;;0.90;;
71763;SDS011;59602;52.142;5.408;2023-01-05T12:14:21;13.98;;;1.48;;
71763;SDS011;59602;52.142;5.408;2023-01-05T12:16:55;14.15;;;1.70;;
71763;SDS011;59602;52.142;5.408;2023-01-05T12:19:46;12.20;;;1.48;;
71763;SDS011;59602;52.142;5.408;2023-01-05T12:22:32;14.35;;;1.58;;
71763;SDS011;59602;52.142;5.408;2023-01-05T12:25:31;20.43;;;1.67;;
71763;SDS011;59602;52.142;5.408;2023-01-05T12:28:22;19.45;;;1.80;;
71763;SDS011;59602;52.142;5.408;2023-01-05T12:34:21;15.80;;;1.15;;
71763;SDS011;59602;52.142;5.408;2023-01-05T12:37:22;13.68;;;1.30;;
71763;SDS011;59602;52.142;5.408;2023-01-05T12:50:39;14.88;;;1.60;;
71763;SDS011;59602;52.142;5.408;2023-01-05T12:53:12;16.47;;;1.40;;
71763;SDS011;59602;52.142;5.408;2023-01-05T12:56:16;16.08;;;1.45;;
71763;SDS011;59602;52.142;5.408;2023-01-05T13:07:20;8.73;;;0.77;;
71763;SDS011;59602;52.142;5.408;2023-01-05T13:09:55;11.15;;;0.90;;
71763;SDS011;59602;52.142;5.408;2023-01-05T13:12:29;11.25;;;1.35;;
71763;SDS011;59602;52.142;5.408;2023-01-05T13:15:03;15.13;;;0.88;;
71763;SDS011;59602;52.142;5.408;2023-01-05T13:17:31;16.02;;;1.00;;
71763;SDS011;59602;52.142;5.408;2023-01-05T13:22:55;13.57;;;0.90;;
71763;SDS011;59602;52.142;5.408;2023-01-05T13:25:30;11.63;;;0.88;;
71763;SDS011;59602;52.142;5.408;2023-01-05T13:28:04;13.20;;;0.95;;
71763;SDS011;59602;52.142;5.408;2023-01-05T13:30:32;10.95;;;0.85;;
71763;SDS011;59602;52.142;5.408;2023-01-05T13:41:46;9.95;;;0.90;;
71763;SDS011;59602;52.142;5.408;2023-01-05T13:44:31;14.10;;;1.38;;
71763;SDS011;59602;52.142;5.408;2023-01-05T13:47:22;13.73;;;0.90;;
71763;SDS011;59602;52.142;5.408;2023-01-05T13:55:17;13.43;;;1.08;;
71763;SDS011;59602;52.142;5.408;2023-01-05T13:57:51;19.17;;;1.50;;
71763;SDS011;59602;52.142;5.408;2023-01-05T14:00:24;10.60;;;1.57;;
71763;SDS011;59602;52.142;5.408;2023-01-05T14:02:57;15.77;;;1.70;;
71763;SDS011;59602;52.142;5.408;2023-01-05T14:05:31;20.30;;;2.25;;
71763;SDS011;59602;52.142;5.408;2023-01-05T14:08:03;15.48;;;1.55;;
71763;SDS011;59602;52.142;5.408;2023-01-05T14:10:32;18.20;;;1.20;;
71763;SDS011;59602;52.142;5.408;2023-01-05T14:12:59;15.80;;;1.10;;
71763;SDS011;59602;52.142;5.408;2023-01-05T14:15:30;14.32;;;1.10;;
71763;SDS011;59602;52.142;5.408;2023-01-05T14:17:59;17.55;;;1.50;;
71763;SDS011;59602;52.142;5.408;2023-01-05T14:20:29;18.95;;;1.75;;
71763;SDS011;59602;52.142;5.408;2023-01-05T14:25:50;17.13;;;1.23;;
71763;SDS011;59602;52.142;5.408;2023-01-05T14:30:49;15.82;;;1.48;;
71763;SDS011;59602;52.142;5.408;2023-01-05T14:33:17;14.10;;;1.50;;
71763;SDS011;59602;52.142;5.408;2023-01-05T14:35:45;19.65;;;1.58;;
71763;SDS011;59602;52.142;5.408;2023-01-05T14:38:37;13.27;;;1.13;;
71763;SDS011;59602;52.142;5.408;2023-01-05T14:45:25;18.40;;;2.30;;
71763;SDS011;59602;52.142;5.408;2023-01-05T14:48:41;13.93;;;1.70;;
71763;SDS011;59602;52.142;5.408;2023-01-05T14:51:53;12.43;;;1.38;;
71763;SDS011;59602;52.142;5.408;2023-01-05T14:58:09;14.68;;;1.48;;
71763;SDS011;59602;52.142;5.408;2023-01-05T15:04:34;20.15;;;1.67;;
71763;SDS011;59602;52.142;5.408;2023-01-05T15:07:56;16.42;;;1.13;;
71763;SDS011;59602;52.142;5.408;2023-01-05T15:10:46;20.17;;;1.80;;
71763;SDS011;59602;52.142;5.408;2023-01-05T15:17:41;17.60;;;1.15;;
71763;SDS011;59602;52.142;5.408;2023-01-05T15:30:17;21.35;;;1.52;;
71763;SDS011;59602;52.142;5.408;2023-01-05T15:33:34;19.15;;;1.63;;
71763;SDS011;59602;52.142;5.408;2023-01-05T15:36:34;20.50;;;1.67;;
71763;SDS011;59602;52.142;5.408;2023-01-05T15:40:03;16.90;;;1.98;;
71763;SDS011;59602;52.142;5.408;2023-01-05T15:43:03;14.13;;;1.70;;
71763;SDS011;59602;52.142;5.408;2023-01-05T15:46:07;18.20;;;1.67;;
71763;SDS011;59602;52.142;5.408;2023-01-05T15:49:09;17.75;;;1.92;;
71763;SDS011;59602;52.142;5.408;2023-01-05T15:52:24;15.45;;;1.42;;
71763;SDS011;59602;52.142;5.408;2023-01-05T15:55:42;21.58;;;1.52;;
71763;SDS011;59602;52.142;5.408;2023-01-05T15:58:44;18.00;;;1.53;;
71763;SDS011;59602;52.142;5.408;2023-01-05T16:01:59;16.50;;;1.17;;
71763;SDS011;59602;52.142;5.408;2023-01-05T16:05:10;19.30;;;1.33;;
71763;SDS011;59602;52.142;5.408;2023-01-05T16:08:30;12.18;;;1.50;;
71763;SDS011;59602;52.142;5.408;2023-01-05T16:11:53;15.18;;;1.55;;
71763;SDS011;59602;52.142;5.408;2023-01-05T16:15:18;12.63;;;1.33;;
71763;SDS011;59602;52.142;5.408;2023-01-05T16:18:39;16.85;;;1.35;;
71763;SDS011;59602;52.142;5.408;2023-01-05T16:33:32;12.17;;;0.50;;
71763;SDS011;59602;52.142;5.408;2023-01-05T16:52:58;12.80;;;1.23;;
71763;SDS011;59602;52.142;5.408;2023-01-05T16:56:53;11.77;;;1.45;;
71763;SDS011;59602;52.142;5.408;2023-01-05T17:03:44;20.38;;;5.63;;
71763;SDS011;59602;52.142;5.408;2023-01-05T17:08:06;11.10;;;2.70;;
71763;SDS011;59602;52.142;5.408;2023-01-05T17:42:06;12.30;;;6.23;;
71763;SDS011;59602;52.142;5.408;2023-01-05T17:48:57;12.43;;;5.10;;
71763;SDS011;59602;52.142;5.408;2023-01-05T17:52:33;16.27;;;5.13;;
71763;SDS011;59602;52.142;5.408;2023-01-05T17:56:15;15.80;;;4.57;;
71763;SDS011;59602;52.142;5.408;2023-01-05T17:59:46;11.73;;;3.80;;
71763;SDS011;59602;52.142;5.408;2023-01-05T18:02:52;14.88;;;4.68;;
71763;SDS011;59602;52.142;5.408;2023-01-05T18:05:39;13.70;;;4.57;;
71763;SDS011;59602;52.142;5.408;2023-01-05T18:16:25;23.17;;;6.57;;
71763;SDS011;59602;52.142;5.408;2023-01-05T18:26:33;17.63;;;6.97;;
71763;SDS011;59602;52.142;5.408;2023-01-05T18:29:51;25.08;;;7.75;;
71763;SDS011;59602;52.142;5.408;2023-01-05T18:32:57;18.70;;;7.33;;
71763;SDS011;59602;52.142;5.408;2023-01-05T18:39:52;21.10;;;7.07;;
71763;SDS011;59602;52.142;5.408;2023-01-05T18:43:02;23.05;;;8.80;;
71763;SDS011;59602;52.142;5.408;2023-01-05T18:46:29;20.65;;;8.20;;
71763;SDS011;59602;52.142;5.408;2023-01-05T18:49:55;23.63;;;7.50;;
71763;SDS011;59602;52.142;5.408;2023-01-05T18:52:24;24.02;;;7.45;;
71763;SDS011;59602;52.142;5.408;2023-01-05T18:55:23;20.40;;;7.85;;
71763;SDS011;59602;52.142;5.408;2023-01-05T18:58:24;21.00;;;7.63;;
71763;SDS011;59602;52.142;5.408;2023-01-05T19:01:28;22.55;;;7.35;;
71763;SDS011;59602;52.142;5.408;2023-01-05T19:03:58;24.70;;;8.27;;
71763;SDS011;59602;52.142;5.408;2023-01-05T19:07:04;21.00;;;8.13;;
71763;SDS011;59602;52.142;5.408;2023-01-05T19:09:54;26.02;;;8.00;;
71763;SDS011;59602;52.142;5.408;2023-01-05T19:13:08;20.20;;;7.25;;
71763;SDS011;59602;52.142;5.408;2023-01-05T19:16:28;20.05;;;7.03;;
71763;SDS011;59602;52.142;5.408;2023-01-05T19:19:22;17.73;;;7.23;;
71763;SDS011;59602;52.142;5.408;2023-01-05T19:22:58;18.15;;;6.80;;
71763;SDS011;59602;52.142;5.408;2023-01-05T19:25:40;19.63;;;6.25;;
71763;SDS011;59602;52.142;5.408;2023-01-05T19:29:06;18.15;;;6.63;;
71763;SDS011;59602;52.142;5.408;2023-01-05T19:32:26;15.90;;;5.85;;
71763;SDS011;59602;52.142;5.408;2023-01-05T19:35:30;16.93;;;5.73;;
71763;SDS011;59602;52.142;5.408;2023-01-05T19:37:59;18.63;;;5.75;;
71763;SDS011;59602;52.142;5.408;2023-01-05T19:40:49;19.15;;;5.80;;
71763;SDS011;59602;52.142;5.408;2023-01-05T19:43:19;14.38;;;4.82;;
71763;SDS011;59602;52.142;5.408;2023-01-05T19:46:08;13.93;;;5.22;;
71763;SDS011;59602;52.142;5.408;2023-01-05T19:52:20;9.73;;;4.00;;
71763;SDS011;59602;52.142;5.408;2023-01-05T19:55:20;16.00;;;4.70;;
71763;SDS011;59602;52.142;5.408;2023-01-05T19:58:49;13.85;;;4.47;;
71763;SDS011;59602;52.142;5.408;2023-01-05T20:02:14;15.07;;;4.97;;
71763;SDS011;59602;52.142;5.408;2023-01-05T20:05:33;13.97;;;4.87;;
71763;SDS011;59602;52.142;5.408;2023-01-05T20:08:49;18.20;;;5.82;;
71763;SDS011;59602;52.142;5.408;2023-01-05T20:11:36;14.57;;;5.80;;
71763;SDS011;59602;52.142;5.408;2023-01-05T20:17:45;15.68;;;6.20;;
71763;SDS011;59602;52.142;5.408;2023-01-05T20:28:22;13.60;;;4.95;;
71763;SDS011;59602;52.142;5.408;2023-01-05T20:34:42;18.63;;;5.70;;
71763;SDS011;59602;52.142;5.408;2023-01-05T20:37:43;15.33;;;5.37;;
71763;SDS011;59602;52.142;5.408;2023-01-05T20:40:11;15.57;;;5.22;;
71763;SDS011;59602;52.142;5.408;2023-01-05T20:42:40;16.67;;;5.32;;
71763;SDS011;59602;52.142;5.408;2023-01-05T20:45:09;16.10;;;6.00;;
71763;SDS011;59602;52.142;5.408;2023-01-05T20:47:37;18.05;;;6.03;;
71763;SDS011;59602;52.142;5.408;2023-01-05T20:50:13;16.63;;;5.60;;
71763;SDS011;59602;52.142;5.408;2023-01-05T20:52:40;15.57;;;4.35;;
71763;SDS011;59602;52.142;5.408;2023-01-05T20:55:15;15.75;;;4.35;;
71763;SDS011;59602;52.142;5.408;2023-01-05T20:57:44;16.92;;;4.45;;
71763;SDS011;59602;52.142;5.408;2023-01-05T21:00:12;13.10;;;4.15;;
71763;SDS011;59602;52.142;5.408;2023-01-05T21:02:40;11.93;;;3.00;;
71763;SDS011;59602;52.142;5.408;2023-01-05T21:05:41;16.15;;;4.10;;
71763;SDS011;59602;52.142;5.408;2023-01-05T21:08:14;11.02;;;2.75;;
71763;SDS011;59602;52.142;5.408;2023-01-05T21:10:41;17.02;;;3.70;;
71763;SDS011;59602;52.142;5.408;2023-01-05T21:13:12;13.57;;;2.95;;
71763;SDS011;59602;52.142;5.408;2023-01-05T21:15:58;14.43;;;3.17;;
71763;SDS011;59602;52.142;5.408;2023-01-05T21:18:29;14.82;;;2.80;;
71763;SDS011;59602;52.142;5.408;2023-01-05T21:21:17;14.23;;;2.92;;
71763;SDS011;59602;52.142;5.408;2023-01-05T21:24:04;14.77;;;2.90;;
71763;SDS011;59602;52.142;5.408;2023-01-05T21:27:00;15.80;;;3.17;;
71763;SDS011;59602;52.142;5.408;2023-01-05T21:29:29;11.17;;;3.00;;
71763;SDS011;59602;52.142;5.408;2023-01-05T21:32:16;7.47;;;2.10;;
71763;SDS011;59602;52.142;5.408;2023-01-05T21:34:49;10.07;;;2.35;;
71763;SDS011;59602;52.142;5.408;2023-01-05T21:37:16;12.65;;;2.63;;
71763;SDS011;59602;52.142;5.408;2023-01-05T21:39:44;8.20;;;2.05;;
71763;SDS011;59602;52.142;5.408;2023-01-05T21:42:15;13.07;;;1.90;;
71763;SDS011;59602;52.142;5.408;2023-01-05T21:45:04;12.52;;;1.83;;
71763;SDS011;59602;52.142;5.408;2023-01-05T21:51:58;6.78;;;1.52;;
71763;SDS011;59602;52.142;5.408;2023-01-05T21:55:00;7.55;;;1.20;;
71763;SDS011;59602;52.142;5.408;2023-01-05T21:58:32;5.07;;;1.10;;
71763;SDS011;59602;52.142;5.408;2023-01-05T22:01:06;4.90;;;1.40;;
71763;SDS011;59602;52.142;5.408;2023-01-05T22:04:31;7.53;;;1.33;;
71763;SDS011;59602;52.142;5.408;2023-01-05T22:07:24;3.80;;;0.98;;
71763;SDS011;59602;52.142;5.408;2023-01-05T22:10:23;5.05;;;1.48;;
71763;SDS011;59602;52.142;5.408;2023-01-05T22:13:28;9.40;;;2.00;;
71763;SDS011;59602;52.142;5.408;2023-01-05T22:16:47;6.75;;;1.30;;
71763;SDS011;59602;52.142;5.408;2023-01-05T22:23:41;2.72;;;0.73;;
71763;SDS011;59602;52.142;5.408;2023-01-05T22:26:52;5.20;;;1.13;;
71763;SDS011;59602;52.142;5.408;2023-01-05T22:29:50;7.63;;;1.10;;
71763;SDS011;59602;52.142;5.408;2023-01-05T22:35:37;4.55;;;0.98;;
71763;SDS011;59602;52.142;5.408;2023-01-05T22:38:26;4.63;;;0.90;;
71763;SDS011;59602;52.142;5.408;2023-01-05T22:41:13;5.63;;;1.20;;
71763;SDS011;59602;52.142;5.408;2023-01-05T22:44:32;5.07;;;1.20;;
71763;SDS011;59602;52.142;5.408;2023-01-05T22:47:47;4.75;;;1.42;;
71763;SDS011;59602;52.142;5.408;2023-01-05T22:50:24;7.97;;;1.35;;
71763;SDS011;59602;52.142;5.408;2023-01-05T22:53:14;5.25;;;1.00;;
71763;SDS011;59602;52.142;5.408;2023-01-05T22:56:06;8.20;;;1.20;;
71763;SDS011;59602;52.142;5.408;2023-01-05T23:02:47;5.40;;;1.08;;
71763;SDS011;59602;52.142;5.408;2023-01-05T23:05:57;5.85;;;1.08;;
71763;SDS011;59602;52.142;5.408;2023-01-05T23:08:40;6.60;;;1.05;;
71763;SDS011;59602;52.142;5.408;2023-01-05T23:11:30;5.43;;;0.98;;
71763;SDS011;59602;52.142;5.408;2023-01-05T23:13:59;6.70;;;1.50;;
71763;SDS011;59602;52.142;5.408;2023-01-05T23:16:33;5.55;;;0.88;;
71763;SDS011;59602;52.142;5.408;2023-01-05T23:19:02;5.25;;;0.88;;
71763;SDS011;59602;52.142;5.408;2023-01-05T23:21:47;8.00;;;1.00;;
71763;SDS011;59602;52.142;5.408;2023-01-05T23:24:16;5.28;;;0.93;;
71763;SDS011;59602;52.142;5.408;2023-01-05T23:26:50;6.60;;;0.83;;
71763;SDS011;59602;52.142;5.408;2023-01-05T23:29:33;5.40;;;0.82;;
71763;SDS011;59602;52.142;5.408;2023-01-05T23:32:26;4.75;;;1.15;;
71763;SDS011;59602;52.142;5.408;2023-01-05T23:38:54;5.88;;;0.98;;
71763;SDS011;59602;52.142;5.408;2023-01-05T23:41:44;4.83;;;0.87;;
71763;SDS011;59602;52.142;5.408;2023-01-05T23:44:18;4.07;;;1.00;;
71763;SDS011;59602;52.142;5.408;2023-01-05T23:47:10;7.78;;;0.70;;
71763;SDS011;59602;52.142;5.408;2023-01-05T23:49:56;2.53;;;0.65;;